Fifty Lakes, Minnesota
Current Conditions -  °F | °C
As of 2:33 PM on Monday 26 Jan 2015 (Local Time) from KPWC Reporting Station
Overcast Overcast  
Wind Chill: 29°   Ceiling: 2400
Heat Index: 37°   Visibility: 10mi
Dew Point: 30°   Wind: 14mph
Humidity: 75%   Direction: 320°NW
Pressure: 29.78"   Gusts: 20mph
Location:  46.74°N, 94.09°W
Report Text: KPWC 262033Z AUTO 32012G17KT 10SM OVC024 03/M01 A2978 RMK AO2
Loading
Personal Weather Stations






























Interactive Weather Map New forecast layout! Learn more

10-Day Weather Forecast

Advertisements
Track Severe Weather on mobile